Time;durP1;ratioP1;P1;durP2;ratioP2;P2;SDS_P1;SDS_P2;PMS_P1;PMS_P2;Temp;Humidity;BMP_temperature;BMP_pressure;BME280_temperature;BME280_humidity;BME280_pressure;Samples;Min_cycle;Max_cycle;Signal;HPM_P1;HPM_P2
2023/12/01 00:02:00;;;;;;;22.23;10.48;;;;;;;;;;5066042;28;20032;-87
2023/12/01 00:04:25;;;;;;;25.90;10.88;;;;;;;;;;5067051;28;20090;-87
2023/12/01 00:06:50;;;;;;;28.63;11.90;;;;;;;;;;5064992;28;20029;-88
2023/12/01 00:09:16;;;;;;;26.15;11.77;;;;;;;;;;5071683;28;20111;-87
2023/12/01 00:11:41;;;;;;;23.67;10.15;;;;;;;;;;5070443;28;20119;-86
2023/12/01 00:14:07;;;;;;;24.27;10.95;;;;;;;;;;5071118;28;20036;-86
2023/12/01 00:16:32;;;;;;;22.30;9.75;;;;;;;;;;5064815;28;20234;-86
2023/12/01 00:18:58;;;;;;;24.38;11.00;;;;;;;;;;5068855;28;20023;-84
2023/12/01 00:21:25;;;;;;;23.65;10.93;;;;;;;;;;5072162;28;20025;-83
2023/12/01 00:23:51;;;;;;;27.10;11.38;;;;;;;;;;5070214;28;20020;-83
2023/12/01 00:26:16;;;;;;;24.63;10.30;;;;;;;;;;5071111;28;20371;-83
2023/12/01 00:28:41;;;;;;;25.90;11.20;;;;;;;;;;5066516;28;20406;-83
2023/12/01 00:31:08;;;;;;;23.13;9.80;;;;;;;;;;5072125;28;20020;-83
2023/12/01 00:33:33;;;;;;;26.60;11.70;;;;;;;;;;5068904;28;20036;-82
2023/12/01 00:36:00;;;;;;;28.65;12.02;;;;;;;;;;5068280;28;20123;-83
2023/12/01 00:38:26;;;;;;;21.92;10.00;;;;;;;;;;5066692;28;20479;-87
2023/12/01 00:40:51;;;;;;;21.50;10.50;;;;;;;;;;5072550;28;20024;-87
2023/12/01 00:43:16;;;;;;;25.45;11.25;;;;;;;;;;5070819;28;20111;-88
2023/12/01 00:45:42;;;;;;;25.13;10.75;;;;;;;;;;5059196;28;20044;-87
2023/12/01 00:48:07;;;;;;;24.98;10.85;;;;;;;;;;5063666;28;20031;-87
2023/12/01 00:50:33;;;;;;;21.45;9.60;;;;;;;;;;5069599;28;20039;-86
2023/12/01 00:52:58;;;;;;;23.70;11.48;;;;;;;;;;5066289;28;20448;-87
2023/12/01 00:55:23;;;;;;;20.20;10.15;;;;;;;;;;5060698;28;20034;-87
2023/12/01 00:57:53;;;;;;;25.65;10.13;;;;;;;;;;5068872;28;20033;-87
2023/12/01 01:00:22;;;;;;;22.33;10.30;;;;;;;;;;5068724;28;20027;-87
2023/12/01 01:02:50;;;;;;;26.45;11.25;;;;;;;;;;5093687;28;20032;-87
2023/12/01 01:05:16;;;;;;;26.15;10.90;;;;;;;;;;5064100;28;20544;-87
2023/12/01 01:07:41;;;;;;;23.15;10.60;;;;;;;;;;5063279;28;20112;-88
2023/12/01 01:10:07;;;;;;;28.02;11.02;;;;;;;;;;5068044;28;20095;-85
2023/12/01 01:12:32;;;;;;;25.02;10.43;;;;;;;;;;5069652;28;20071;-88
2023/12/01 01:15:02;;;;;;;26.23;11.90;;;;;;;;;;5068718;28;20033;-87
2023/12/01 01:17:28;;;;;;;24.23;11.00;;;;;;;;;;5063973;28;20060;-87
2023/12/01 01:19:53;;;;;;;28.58;11.68;;;;;;;;;;5065212;28;20031;-87
2023/12/01 01:22:19;;;;;;;27.40;12.15;;;;;;;;;;5069371;28;20473;-87
2023/12/01 01:24:45;;;;;;;25.80;11.05;;;;;;;;;;5070661;28;20029;-87
2023/12/01 01:27:11;;;;;;;30.77;11.95;;;;;;;;;;5067728;28;20394;-83
2023/12/01 01:29:36;;;;;;;23.50;11.23;;;;;;;;;;5073061;28;20024;-83
2023/12/01 01:32:02;;;;;;;26.60;11.00;;;;;;;;;;5066848;28;20036;-83
2023/12/01 01:34:27;;;;;;;26.38;12.48;;;;;;;;;;5065347;28;20029;-83
2023/12/01 01:36:53;;;;;;;25.77;10.73;;;;;;;;;;5069634;28;20120;-83
2023/12/01 01:39:18;;;;;;;24.52;11.63;;;;;;;;;;5068645;28;20035;-82
2023/12/01 01:41:43;;;;;;;26.02;12.00;;;;;;;;;;5072305;28;20024;-82
2023/12/01 01:44:10;;;;;;;26.38;11.63;;;;;;;;;;5070637;28;20386;-82
2023/12/01 01:46:37;;;;;;;24.60;10.63;;;;;;;;;;5070342;28;20021;-86
2023/12/01 01:49:05;;;;;;;23.50;9.55;;;;;;;;;;5073197;28;20040;-86
2023/12/01 01:51:32;;;;;;;23.75;10.85;;;;;;;;;;5063466;28;20082;-86
2023/12/01 01:53:58;;;;;;;23.70;9.65;;;;;;;;;;5072042;28;20048;-86
2023/12/01 01:56:26;;;;;;;25.42;10.75;;;;;;;;;;5072439;28;20024;-86
2023/12/01 01:58:51;;;;;;;23.80;10.00;;;;;;;;;;5066184;28;20025;-86
2023/12/01 02:01:17;;;;;;;27.65;10.95;;;;;;;;;;5068846;28;20024;-86
2023/12/01 02:03:43;;;;;;;25.95;10.75;;;;;;;;;;5069297;28;20048;-85
2023/12/01 02:06:09;;;;;;;29.77;10.90;;;;;;;;;;5072283;28;20504;-86
2023/12/01 02:08:35;;;;;;;30.80;10.75;;;;;;;;;;5067439;28;20032;-86
2023/12/01 02:11:01;;;;;;;26.90;11.02;;;;;;;;;;5071241;28;20108;-86
2023/12/01 02:13:28;;;;;;;28.80;11.52;;;;;;;;;;5071723;28;20111;-86
2023/12/01 02:15:54;;;;;;;29.35;11.30;;;;;;;;;;5065688;28;20035;-86
2023/12/01 02:18:26;;;;;;;27.17;10.52;;;;;;;;;;5070711;28;20024;-86
2023/12/01 02:20:53;;;;;;;31.25;11.18;;;;;;;;;;5074625;28;20560;-85
2023/12/01 02:23:19;;;;;;;27.48;10.10;;;;;;;;;;5066299;28;20032;-86
2023/12/01 02:25:45;;;;;;;26.50;10.38;;;;;;;;;;5070217;28;20029;-86
2023/12/01 02:28:11;;;;;;;26.40;10.25;;;;;;;;;;5071221;28;20021;-86
2023/12/01 02:30:37;;;;;;;25.13;9.85;;;;;;;;;;5068227;28;20529;-85
2023/12/01 02:33:02;;;;;;;28.02;10.68;;;;;;;;;;5068928;28;20884;-86
2023/12/01 02:35:29;;;;;;;26.50;10.45;;;;;;;;;;5070205;28;20035;-86
2023/12/01 02:37:58;;;;;;;26.67;10.30;;;;;;;;;;5070199;28;20024;-86
2023/12/01 02:40:24;;;;;;;27.70;10.25;;;;;;;;;;5065828;28;20064;-86
2023/12/01 02:42:50;;;;;;;29.40;10.40;;;;;;;;;;5070158;28;20059;-86
2023/12/01 02:45:16;;;;;;;25.48;10.00;;;;;;;;;;5069297;28;20034;-86
2023/12/01 02:47:45;;;;;;;27.90;10.38;;;;;;;;;;5068545;28;20542;-86
2023/12/01 02:50:12;;;;;;;32.08;10.65;;;;;;;;;;5067846;28;20028;-86
2023/12/01 02:52:38;;;;;;;28.13;9.48;;;;;;;;;;5071443;28;20107;-85
2023/12/01 02:55:03;;;;;;;26.65;9.25;;;;;;;;;;5070493;28;20116;-85
2023/12/01 02:57:29;;;;;;;28.52;9.98;;;;;;;;;;5105256;28;20025;-86
2023/12/01 02:59:54;;;;;;;27.55;9.93;;;;;;;;;;5063382;28;20501;-86
2023/12/01 03:02:20;;;;;;;26.88;10.00;;;;;;;;;;5064701;28;20032;-86
2023/12/01 03:04:46;;;;;;;28.63;9.73;;;;;;;;;;5071325;28;20432;-85
2023/12/01 03:07:11;;;;;;;26.88;9.88;;;;;;;;;;5064011;28;20421;-86
2023/12/01 03:09:37;;;;;;;31.52;10.57;;;;;;;;;;5070078;28;20025;-86
2023/12/01 03:12:03;;;;;;;27.73;9.73;;;;;;;;;;5070305;28;20023;-86
2023/12/01 03:14:29;;;;;;;30.65;9.85;;;;;;;;;;5066289;28;20029;-86
2023/12/01 03:16:56;;;;;;;36.38;10.75;;;;;;;;;;5066700;28;20391;-85
2023/12/01 03:19:22;;;;;;;33.88;10.48;;;;;;;;;;5069489;28;20044;-86
2023/12/01 03:21:48;;;;;;;36.90;10.75;;;;;;;;;;5068946;28;20461;-87
2023/12/01 03:24:13;;;;;;;33.70;11.30;;;;;;;;;;5069536;28;20032;-86
2023/12/01 03:26:39;;;;;;;32.72;11.63;;;;;;;;;;5052976;28;20516;-85
2023/12/01 03:29:04;;;;;;;31.00;10.82;;;;;;;;;;5072267;28;20032;-86
2023/12/01 03:31:30;;;;;;;36.60;11.52;;;;;;;;;;5068759;28;20029;-86
2023/12/01 03:33:55;;;;;;;39.58;12.57;;;;;;;;;;5066383;28;20032;-86
2023/12/01 03:36:21;;;;;;;33.53;12.00;;;;;;;;;;5065312;28;20035;-86
2023/12/01 03:38:47;;;;;;;35.33;11.52;;;;;;;;;;5062467;28;20029;-86
2023/12/01 03:41:13;;;;;;;33.78;10.80;;;;;;;;;;5066807;28;20108;-86
2023/12/01 03:43:38;;;;;;;31.63;10.70;;;;;;;;;;5068491;28;20028;-86
2023/12/01 03:46:04;;;;;;;34.38;11.80;;;;;;;;;;5067038;28;20052;-86
2023/12/01 03:48:31;;;;;;;36.22;11.20;;;;;;;;;;5067233;28;20394;-86
2023/12/01 03:50:57;;;;;;;35.20;11.65;;;;;;;;;;5066069;28;20033;-86
2023/12/01 03:53:22;;;;;;;37.97;12.05;;;;;;;;;;5067808;28;20406;-86
2023/12/01 03:55:47;;;;;;;39.95;12.00;;;;;;;;;;5070283;28;20033;-86
2023/12/01 03:58:13;;;;;;;34.90;10.38;;;;;;;;;;5063069;28;20094;-86
2023/12/01 04:00:38;;;;;;;40.10;12.30;;;;;;;;;;5070173;28;20703;-86
2023/12/01 04:03:04;;;;;;;41.50;12.00;;;;;;;;;;5070439;28;20039;-86
2023/12/01 04:05:30;;;;;;;39.65;12.43;;;;;;;;;;5069222;28;20050;-86
2023/12/01 04:07:56;;;;;;;43.15;12.15;;;;;;;;;;5066691;28;20386;-86
2023/12/01 04:10:21;;;;;;;39.28;11.38;;;;;;;;;;5070187;28;20021;-86
2023/12/01 04:12:47;;;;;;;46.17;13.93;;;;;;;;;;5066792;28;20027;-86
2023/12/01 04:15:15;;;;;;;46.60;13.70;;;;;;;;;;5070119;28;20044;-86
2023/12/01 04:17:45;;;;;;;44.92;12.93;;;;;;;;;;5066564;28;20024;-86
2023/12/01 04:20:22;;;;;;;41.95;14.48;;;;;;;;;;5063448;28;20107;-87
2023/12/01 04:22:59;;;;;;;42.63;12.38;;;;;;;;;;5061820;28;20024;-85
2023/12/01 04:25:25;;;;;;;39.05;13.32;;;;;;;;;;5069157;28;20031;-85
2023/12/01 04:27:52;;;;;;;49.00;13.15;;;;;;;;;;5066599;28;20047;-86
2023/12/01 04:30:17;;;;;;;45.67;13.93;;;;;;;;;;5068134;28;20077;-86
2023/12/01 04:32:45;;;;;;;40.03;14.00;;;;;;;;;;5063632;28;20455;-85
2023/12/01 04:35:12;;;;;;;51.97;14.73;;;;;;;;;;5068927;28;20074;-86
2023/12/01 04:37:39;;;;;;;50.78;15.38;;;;;;;;;;5072795;28;20025;-86
2023/12/01 04:40:13;;;;;;;46.92;14.93;;;;;;;;;;5070441;28;20070;-85
2023/12/01 04:42:38;;;;;;;47.65;14.80;;;;;;;;;;5064294;28;20111;-86
2023/12/01 04:45:06;;;;;;;44.58;14.27;;;;;;;;;;5061939;28;20162;-86
2023/12/01 04:47:33;;;;;;;42.20;13.98;;;;;;;;;;5063019;28;20169;-86
2023/12/01 04:49:58;;;;;;;47.50;14.18;;;;;;;;;;5061521;28;21190;-85
2023/12/01 04:52:24;;;;;;;49.38;16.17;;;;;;;;;;5068772;28;20035;-85
2023/12/01 04:54:51;;;;;;;45.97;14.80;;;;;;;;;;5068390;28;20033;-86
2023/12/01 04:57:17;;;;;;;47.00;15.25;;;;;;;;;;5070653;28;20031;-82
2023/12/01 04:59:43;;;;;;;40.90;14.50;;;;;;;;;;5064693;28;20103;-82
2023/12/01 05:02:09;;;;;;;47.80;15.50;;;;;;;;;;5062007;28;20178;-82
2023/12/01 05:04:36;;;;;;;46.42;14.70;;;;;;;;;;5066017;28;20504;-82
2023/12/01 05:07:01;;;;;;;45.72;15.35;;;;;;;;;;5060701;28;20471;-81
2023/12/01 05:09:27;;;;;;;46.00;15.63;;;;;;;;;;5066670;28;20032;-81
2023/12/01 05:11:53;;;;;;;44.05;14.98;;;;;;;;;;5066295;28;20059;-82
2023/12/01 05:14:18;;;;;;;39.45;13.73;;;;;;;;;;5065031;28;20036;-82
2023/12/01 05:16:44;;;;;;;35.38;14.75;;;;;;;;;;5064052;28;20094;-85
2023/12/01 05:19:10;;;;;;;40.80;14.82;;;;;;;;;;5065206;28;20032;-86
2023/12/01 05:21:36;;;;;;;40.83;14.52;;;;;;;;;;5063949;28;20498;-85
2023/12/01 05:24:01;;;;;;;38.22;14.30;;;;;;;;;;5065589;28;20032;-84
2023/12/01 05:26:28;;;;;;;35.75;13.60;;;;;;;;;;5065908;28;20055;-86
2023/12/01 05:28:55;;;;;;;35.70;13.80;;;;;;;;;;5068313;28;20063;-86
2023/12/01 05:31:20;;;;;;;36.65;13.60;;;;;;;;;;5062962;28;20044;-86
2023/12/01 05:33:46;;;;;;;38.85;13.60;;;;;;;;;;5061227;28;20068;-86
2023/12/01 05:36:14;;;;;;;34.80;13.45;;;;;;;;;;5064014;28;20091;-86
2023/12/01 05:38:40;;;;;;;35.53;13.18;;;;;;;;;;5063576;28;20033;-85
2023/12/01 05:41:09;;;;;;;28.00;12.23;;;;;;;;;;5068192;28;20035;-86
2023/12/01 05:43:35;;;;;;;31.23;12.23;;;;;;;;;;5061589;28;20032;-85
2023/12/01 05:46:00;;;;;;;31.33;12.18;;;;;;;;;;5065762;28;20020;-85
2023/12/01 05:48:26;;;;;;;32.97;12.98;;;;;;;;;;5064861;28;20042;-85
2023/12/01 05:50:52;;;;;;;35.80;12.88;;;;;;;;;;5066912;28;20036;-85
2023/12/01 05:53:17;;;;;;;32.40;12.48;;;;;;;;;;5065515;28;20032;-85
2023/12/01 05:55:42;;;;;;;33.13;11.60;;;;;;;;;;5065829;28;20402;-86
2023/12/01 05:58:10;;;;;;;34.83;12.02;;;;;;;;;;5062204;28;20085;-85
2023/12/01 06:00:36;;;;;;;27.80;11.32;;;;;;;;;;5064893;28;20431;-85
2023/12/01 06:03:06;;;;;;;32.03;12.35;;;;;;;;;;5063959;28;20035;-85
2023/12/01 06:05:33;;;;;;;34.17;12.50;;;;;;;;;;5062590;28;20053;-86
2023/12/01 06:07:59;;;;;;;33.00;12.05;;;;;;;;;;5059472;28;20032;-82
2023/12/01 06:10:27;;;;;;;32.05;12.05;;;;;;;;;;5068549;28;20039;-81
2023/12/01 06:12:53;;;;;;;29.77;11.85;;;;;;;;;;5063805;28;20150;-81
2023/12/01 06:15:19;;;;;;;29.48;12.05;;;;;;;;;;5063795;28;20029;-81
2023/12/01 06:17:52;;;;;;;31.02;11.55;;;;;;;;;;5063100;28;20611;-82
2023/12/01 06:20:20;;;;;;;;;;;;;;;;;;5064950;28;20020;-82
2023/12/01 06:22:54;;;;;;;27.98;10.13;;;;;;;;;;5063870;28;19951;-81
2023/12/01 06:25:20;;;;;;;27.50;11.23;;;;;;;;;;5064126;28;20036;-82
2023/12/01 06:27:47;;;;;;;28.58;11.20;;;;;;;;;;5060959;28;20115;-81
2023/12/01 06:30:14;;;;;;;29.75;11.38;;;;;;;;;;5062900;28;20025;-81
2023/12/01 06:32:41;;;;;;;29.10;10.90;;;;;;;;;;5061137;28;20024;-82
2023/12/01 06:35:11;;;;;;;30.23;11.85;;;;;;;;;;5068923;28;20375;-81
2023/12/01 06:37:37;;;;;;;31.00;11.18;;;;;;;;;;5069794;28;20021;-82
2023/12/01 06:40:11;;;;;;;30.45;11.25;;;;;;;;;;5064398;28;20111;-82
2023/12/01 06:42:41;;;;;;;24.67;10.27;;;;;;;;;;5063544;28;20098;-81
2023/12/01 06:45:12;;;;;;;25.98;10.90;;;;;;;;;;5069295;28;20028;-81
2023/12/01 06:47:38;;;;;;;27.42;11.60;;;;;;;;;;5059751;28;20067;-82
2023/12/01 06:50:04;;;;;;;32.00;12.35;;;;;;;;;;5067236;28;20025;-82
2023/12/01 06:52:30;;;;;;;28.33;10.80;;;;;;;;;;5068225;28;20035;-82
2023/12/01 06:54:55;;;;;;;29.50;12.65;;;;;;;;;;5067776;28;20040;-82
2023/12/01 06:57:20;;;;;;;32.00;12.20;;;;;;;;;;5068030;28;20025;-82
2023/12/01 06:59:46;;;;;;;30.13;11.60;;;;;;;;;;5065170;28;20358;-83
2023/12/01 07:02:17;;;;;;;26.35;10.77;;;;;;;;;;5066704;28;20076;-83
2023/12/01 07:04:44;;;;;;;31.90;12.00;;;;;;;;;;5064833;28;20043;-82
2023/12/01 07:07:09;;;;;;;29.92;11.27;;;;;;;;;;5070491;28;20055;-82
2023/12/01 07:09:35;;;;;;;27.90;11.15;;;;;;;;;;5069948;28;20056;-82
2023/12/01 07:12:04;;;;;;;28.02;11.43;;;;;;;;;;5066950;28;20055;-82
2023/12/01 07:14:30;;;;;;;27.08;10.95;;;;;;;;;;5057910;28;20032;-82
2023/12/01 07:16:56;;;;;;;29.05;12.27;;;;;;;;;;5067596;28;20024;-85
2023/12/01 07:19:21;;;;;;;28.70;11.82;;;;;;;;;;5066291;28;20016;-85
2023/12/01 07:21:47;;;;;;;29.88;11.35;;;;;;;;;;5066988;28;20231;-85
2023/12/01 07:24:13;;;;;;;29.50;11.85;;;;;;;;;;5061461;28;20449;-85
2023/12/01 07:26:38;;;;;;;26.60;11.35;;;;;;;;;;5068378;28;20030;-85
2023/12/01 07:29:04;;;;;;;28.25;10.88;;;;;;;;;;5066056;28;20028;-85
2023/12/01 07:31:33;;;;;;;29.60;11.85;;;;;;;;;;5064263;28;20021;-85
2023/12/01 07:34:00;;;;;;;31.85;12.60;;;;;;;;;;5064071;28;20025;-85
2023/12/01 07:36:26;;;;;;;36.00;13.88;;;;;;;;;;5066252;28;20624;-85
2023/12/01 07:38:52;;;;;;;32.75;12.63;;;;;;;;;;5067856;28;20024;-85
2023/12/01 07:41:17;;;;;;;37.50;13.63;;;;;;;;;;5068781;28;20182;-85
2023/12/01 07:43:42;;;;;;;36.75;13.60;;;;;;;;;;5067091;28;20367;-85
2023/12/01 07:46:08;;;;;;;37.72;13.95;;;;;;;;;;5072478;28;20036;-85
2023/12/01 07:48:34;;;;;;;36.47;14.20;;;;;;;;;;5071263;28;20036;-85
2023/12/01 07:51:00;;;;;;;32.92;12.90;;;;;;;;;;5070047;28;20021;-85
2023/12/01 07:53:26;;;;;;;37.00;13.65;;;;;;;;;;5069012;28;20027;-85
2023/12/01 07:55:51;;;;;;;37.97;14.68;;;;;;;;;;5069221;28;20033;-85
2023/12/01 07:58:17;;;;;;;38.17;14.55;;;;;;;;;;5062449;28;20024;-84
2023/12/01 08:00:42;;;;;;;42.67;15.00;;;;;;;;;;5064523;28;20037;-85
2023/12/01 08:03:08;;;;;;;36.60;13.55;;;;;;;;;;5062620;28;20024;-85
2023/12/01 08:05:36;;;;;;;35.80;14.65;;;;;;;;;;5068361;28;20505;-85
2023/12/01 08:08:03;;;;;;;38.47;14.35;;;;;;;;;;5067377;28;20056;-85
2023/12/01 08:10:28;;;;;;;37.13;13.93;;;;;;;;;;5071009;28;20032;-85
2023/12/01 08:12:57;;;;;;;39.28;14.13;;;;;;;;;;5071790;28;20058;-85
2023/12/01 08:15:23;;;;;;;40.33;13.75;;;;;;;;;;5078888;28;20028;-85
2023/12/01 08:17:49;;;;;;;32.88;12.27;;;;;;;;;;5069271;28;20063;-85
2023/12/01 08:20:16;;;;;;;36.28;12.80;;;;;;;;;;5068608;28;20032;-85
2023/12/01 08:22:46;;;;;;;40.20;14.65;;;;;;;;;;5067763;28;20036;-84
2023/12/01 08:25:15;;;;;;;41.15;14.73;;;;;;;;;;5062371;28;20081;-84
2023/12/01 08:27:41;;;;;;;34.67;13.00;;;;;;;;;;5066943;28;20401;-81
2023/12/01 08:30:08;;;;;;;32.55;12.90;;;;;;;;;;5068258;28;20025;-82
2023/12/01 08:32:34;;;;;;;33.33;13.02;;;;;;;;;;5062350;28;20032;-82
2023/12/01 08:35:01;;;;;;;40.95;14.45;;;;;;;;;;5064226;28;20028;-82
2023/12/01 08:37:27;;;;;;;37.00;12.95;;;;;;;;;;5061553;28;20054;-82
2023/12/01 08:39:52;;;;;;;35.90;12.55;;;;;;;;;;5067862;28;20772;-82
2023/12/01 08:42:18;;;;;;;32.95;12.93;;;;;;;;;;5068646;28;20024;-82
2023/12/01 08:44:45;;;;;;;32.60;11.85;;;;;;;;;;5067641;28;20665;-82
2023/12/01 08:47:13;;;;;;;28.17;11.27;;;;;;;;;;5065132;28;20071;-85
2023/12/01 08:49:39;;;;;;;24.63;9.48;;;;;;;;;;5068093;28;20020;-85
2023/12/01 08:52:06;;;;;;;23.33;8.95;;;;;;;;;;5064596;28;20036;-85
2023/12/01 08:54:31;;;;;;;22.92;8.40;;;;;;;;;;5058958;28;20024;-84
2023/12/01 08:56:58;;;;;;;23.02;8.60;;;;;;;;;;5066748;28;20028;-85
2023/12/01 08:59:27;;;;;;;21.92;8.82;;;;;;;;;;5070637;28;20051;-84
2023/12/01 09:01:52;;;;;;;19.85;8.35;;;;;;;;;;5066547;28;20025;-85
2023/12/01 09:04:18;;;;;;;23.38;8.75;;;;;;;;;;5063964;28;20032;-85
2023/12/01 09:06:43;;;;;;;23.02;8.35;;;;;;;;;;5062247;28;20036;-84
2023/12/01 09:09:08;;;;;;;19.25;6.95;;;;;;;;;;5069495;28;20618;-84
2023/12/01 09:11:34;;;;;;;19.23;7.80;;;;;;;;;;5063992;28;20079;-84
2023/12/01 09:13:59;;;;;;;22.02;8.13;;;;;;;;;;5069643;28;20031;-85
2023/12/01 09:16:25;;;;;;;18.23;8.13;;;;;;;;;;5060041;28;20025;-84
2023/12/01 09:18:50;;;;;;;20.42;8.35;;;;;;;;;;5067066;28;20025;-85
2023/12/01 09:21:17;;;;;;;20.90;7.88;;;;;;;;;;5060853;28;20040;-85
2023/12/01 09:23:42;;;;;;;22.95;9.68;;;;;;;;;;5059639;28;20040;-84
2023/12/01 09:26:08;;;;;;;26.10;10.52;;;;;;;;;;5065734;28;20438;-84
2023/12/01 09:28:36;;;;;;;22.63;9.43;;;;;;;;;;5070117;28;20034;-84
2023/12/01 09:31:02;;;;;;;24.30;10.75;;;;;;;;;;5069216;28;20038;-84
2023/12/01 09:33:30;;;;;;;23.77;9.13;;;;;;;;;;5058002;28;20021;-84
2023/12/01 09:35:56;;;;;;;16.95;7.43;;;;;;;;;;5069223;28;20123;-83
2023/12/01 09:38:21;;;;;;;21.15;8.23;;;;;;;;;;5063951;28;20507;-84
2023/12/01 09:40:47;;;;;;;22.48;9.27;;;;;;;;;;5068960;28;20024;-85
2023/12/01 09:43:17;;;;;;;22.60;8.65;;;;;;;;;;5067482;28;20024;-84
2023/12/01 09:45:43;;;;;;;17.27;6.45;;;;;;;;;;5069248;28;20037;-84
2023/12/01 09:48:10;;;;;;;18.38;7.50;;;;;;;;;;5067195;28;20062;-84
2023/12/01 09:50:35;;;;;;;20.05;7.82;;;;;;;;;;5072266;28;20091;-85
2023/12/01 09:53:02;;;;;;;20.92;7.93;;;;;;;;;;5069690;28;20161;-83
2023/12/01 09:55:28;;;;;;;18.60;7.15;;;;;;;;;;5068874;28;20032;-83
2023/12/01 09:57:53;;;;;;;17.42;7.13;;;;;;;;;;5067035;28;20037;-82
2023/12/01 10:00:19;;;;;;;20.13;8.25;;;;;;;;;;5069487;28;20021;-83
2023/12/01 10:02:45;;;;;;;21.98;7.97;;;;;;;;;;5062368;28;20493;-83
2023/12/01 10:05:13;;;;;;;16.60;7.80;;;;;;;;;;5064135;28;20049;-83
2023/12/01 10:07:40;;;;;;;19.40;7.50;;;;;;;;;;5065836;28;20481;-83
2023/12/01 10:10:26;;;;;;;20.85;7.70;;;;;;;;;;5065363;28;20040;-83
2023/12/01 10:13:04;;;;;;;19.77;8.02;;;;;;;;;;5067692;28;20024;-83
2023/12/01 10:15:31;;;;;;;18.88;8.07;;;;;;;;;;5061947;28;20020;-83
2023/12/01 10:18:17;;;;;;;20.45;8.00;;;;;;;;;;5068371;28;20043;-83
2023/12/01 10:21:02;;;;;;;22.85;8.90;;;;;;;;;;5072463;28;20028;-83
2023/12/01 10:23:29;;;;;;;20.38;8.25;;;;;;;;;;5065250;28;20052;-83
2023/12/01 10:25:56;;;;;;;18.70;7.55;;;;;;;;;;5073177;28;20036;-82
2023/12/01 10:28:37;;;;;;;18.77;7.68;;;;;;;;;;5070103;28;20028;-83
2023/12/01 10:31:02;;;;;;;19.95;7.88;;;;;;;;;;5066462;28;20051;-82
2023/12/01 10:33:31;;;;;;;18.58;7.78;;;;;;;;;;5068291;28;20059;-83
2023/12/01 10:36:07;;;;;;;17.63;8.18;;;;;;;;;;5084806;28;20055;-83
2023/12/01 10:38:35;;;;;;;23.58;9.25;;;;;;;;;;5064151;28;20029;-82
2023/12/01 10:41:03;;;;;;;21.35;7.43;;;;;;;;;;5068786;28;20493;-83
2023/12/01 10:43:32;;;;;;;20.60;8.07;;;;;;;;;;5064346;28;20020;-83
2023/12/01 10:46:03;;;;;;;17.42;7.75;;;;;;;;;;5066019;28;20394;-82
2023/12/01 10:48:30;;;;;;;18.52;6.78;;;;;;;;;;5065338;28;20066;-83
2023/12/01 10:50:56;;;;;;;19.48;7.68;;;;;;;;;;5066792;28;20421;-83
2023/12/01 10:53:28;;;;;;;19.92;8.10;;;;;;;;;;5070496;28;20028;-83
2023/12/01 10:55:55;;;;;;;19.70;7.88;;;;;;;;;;5066118;28;20079;-83
2023/12/01 10:58:22;;;;;;;20.20;7.75;;;;;;;;;;5066703;28;20108;-84
2023/12/01 11:00:49;;;;;;;19.77;8.20;;;;;;;;;;5063032;28;20107;-82
2023/12/01 11:03:24;;;;;;;17.13;7.20;;;;;;;;;;5064642;28;20082;-83
2023/12/01 11:05:55;;;;;;;19.70;7.82;;;;;;;;;;5062160;28;20489;-84
2023/12/01 11:09:05;;;;;;;17.90;7.32;;;;;;;;;;5064545;28;20036;-83
2023/12/01 11:11:56;;;;;;;18.83;7.50;;;;;;;;;;5045566;28;20045;-83
2023/12/01 11:14:25;;;;;;;17.25;8.15;;;;;;;;;;5080853;28;20016;-83
2023/12/01 11:16:51;;;;;;;15.95;7.28;;;;;;;;;;5065385;28;20458;-82
2023/12/01 11:19:18;;;;;;;16.52;7.32;;;;;;;;;;5099522;28;20039;-83
2023/12/01 11:21:44;;;;;;;19.10;8.00;;;;;;;;;;5058941;28;20061;-83
2023/12/01 11:24:31;;;;;;;18.52;7.70;;;;;;;;;;5062973;28;20032;-83
2023/12/01 11:27:07;;;;;;;21.02;8.00;;;;;;;;;;5067913;28;20489;-82
2023/12/01 11:29:39;;;;;;;17.73;7.60;;;;;;;;;;5072838;28;20036;-82
2023/12/01 11:32:04;;;;;;;18.05;7.57;;;;;;;;;;5063799;28;20032;-83
2023/12/01 11:34:30;;;;;;;20.10;7.65;;;;;;;;;;5065087;28;20029;-83
2023/12/01 11:37:05;;;;;;;17.85;7.55;;;;;;;;;;5064728;28;20040;-83
2023/12/01 11:39:31;;;;;;;19.27;7.75;;;;;;;;;;5099963;28;20364;-82
2023/12/01 11:42:00;;;;;;;17.92;7.43;;;;;;;;;;5063072;28;20099;-83
2023/12/01 11:44:37;;;;;;;20.08;7.70;;;;;;;;;;5069604;28;20028;-83
2023/12/01 11:47:05;;;;;;;18.63;7.28;;;;;;;;;;5069521;28;20036;-83
2023/12/01 11:49:33;;;;;;;23.50;8.30;;;;;;;;;;5063441;28;20101;-83
2023/12/01 11:52:00;;;;;;;20.55;7.63;;;;;;;;;;5065677;28;20051;-83
2023/12/01 11:54:26;;;;;;;20.80;8.20;;;;;;;;;;5072234;28;20021;-83
2023/12/01 11:56:53;;;;;;;19.42;7.80;;;;;;;;;;5066364;28;20027;-82
2023/12/01 11:59:19;;;;;;;19.85;8.13;;;;;;;;;;5078995;28;20089;-83
2023/12/01 12:01:47;;;;;;;18.35;7.35;;;;;;;;;;5056975;28;20118;-83
2023/12/01 12:04:16;;;;;;;19.67;7.72;;;;;;;;;;5063056;28;20445;-83
2023/12/01 12:06:45;;;;;;;16.85;7.40;;;;;;;;;;5063161;28;20089;-83
2023/12/01 12:09:17;;;;;;;17.48;6.78;;;;;;;;;;5069971;28;20032;-83
2023/12/01 12:11:53;;;;;;;18.80;7.43;;;;;;;;;;5069807;28;20116;-88
2023/12/01 12:14:29;;;;;;;16.77;7.40;;;;;;;;;;5068740;28;20469;-83
2023/12/01 12:16:57;;;;;;;17.95;7.80;;;;;;;;;;5065478;28;20274;-83
2023/12/01 12:19:23;;;;;;;17.83;7.40;;;;;;;;;;5072134;28;20032;-83
2023/12/01 12:21:51;;;;;;;18.25;7.22;;;;;;;;;;5067940;28;20111;-83
2023/12/01 12:24:17;;;;;;;17.05;7.10;;;;;;;;;;5065815;28;20028;-82
2023/12/01 12:26:43;;;;;;;21.38;7.20;;;;;;;;;;5069744;28;20563;-83
2023/12/01 12:29:09;;;;;;;18.58;6.95;;;;;;;;;;5066707;28;20107;-83
2023/12/01 12:31:36;;;;;;;17.55;7.32;;;;;;;;;;5062390;28;20474;-82
2023/12/01 12:34:07;;;;;;;16.63;6.82;;;;;;;;;;5068969;28;20031;-81
2023/12/01 12:36:34;;;;;;;20.02;7.13;;;;;;;;;;5071706;28;20020;-82
2023/12/01 12:39:06;;;;;;;16.85;7.28;;;;;;;;;;5060819;28;20037;-83
2023/12/01 12:41:36;;;;;;;16.95;7.53;;;;;;;;;;5063988;28;20466;-83
2023/12/01 12:44:07;;;;;;;19.35;6.70;;;;;;;;;;5066909;28;20028;-83
2023/12/01 12:46:33;;;;;;;19.80;6.63;;;;;;;;;;5076546;28;20052;-81
2023/12/01 12:49:02;;;;;;;16.00;6.82;;;;;;;;;;5062747;28;20032;-83
2023/12/01 12:51:30;;;;;;;19.50;7.97;;;;;;;;;;5061279;28;20104;-82
2023/12/01 12:53:56;;;;;;;19.30;6.90;;;;;;;;;;5065146;28;20028;-83
2023/12/01 12:56:22;;;;;;;16.10;6.82;;;;;;;;;;5058915;28;20029;-83
2023/12/01 12:58:53;;;;;;;18.05;7.35;;;;;;;;;;5070017;28;20046;-83
2023/12/01 13:01:19;;;;;;;19.08;6.53;;;;;;;;;;5064176;28;20028;-83
2023/12/01 13:03:46;;;;;;;16.58;7.05;;;;;;;;;;5076573;28;20498;-83
2023/12/01 13:06:12;;;;;;;17.42;7.07;;;;;;;;;;5069915;28;20044;-83
2023/12/01 13:08:40;;;;;;;17.95;7.15;;;;;;;;;;5057086;28;20028;-82
2023/12/01 13:11:07;;;;;;;15.57;6.70;;;;;;;;;;5042033;28;20107;-83
2023/12/01 13:13:35;;;;;;;17.38;6.45;;;;;;;;;;5057022;28;20343;-83
2023/12/01 13:16:04;;;;;;;16.55;6.72;;;;;;;;;;5062450;28;20029;-82
2023/12/01 13:18:30;;;;;;;17.98;6.88;;;;;;;;;;5056075;28;20098;-83
2023/12/01 13:20:57;;;;;;;20.55;6.85;;;;;;;;;;5064360;28;20495;-82
2023/12/01 13:23:23;;;;;;;20.65;7.78;;;;;;;;;;5061090;28;20036;-83
2023/12/01 13:25:49;;;;;;;16.40;6.10;;;;;;;;;;5058859;28;20028;-83
2023/12/01 13:28:14;;;;;;;19.67;7.18;;;;;;;;;;5061581;28;20563;-83
2023/12/01 13:30:40;;;;;;;16.50;7.00;;;;;;;;;;5063491;28;20040;-83
2023/12/01 13:33:06;;;;;;;17.67;7.22;;;;;;;;;;5061476;28;20041;-83
2023/12/01 13:35:36;;;;;;;16.70;6.80;;;;;;;;;;5064058;28;20028;-83
2023/12/01 13:38:02;;;;;;;17.30;6.72;;;;;;;;;;5058448;28;20032;-83
2023/12/01 13:40:28;;;;;;;17.48;6.43;;;;;;;;;;5057706;28;20027;-83
2023/12/01 13:42:54;;;;;;;17.23;6.45;;;;;;;;;;5058268;28;20032;-83
2023/12/01 13:45:20;;;;;;;16.63;7.32;;;;;;;;;;5063277;28;20036;-82
2023/12/01 13:47:47;;;;;;;18.02;7.40;;;;;;;;;;5060196;28;20024;-83
2023/12/01 13:50:12;;;;;;;17.73;7.18;;;;;;;;;;5058416;28;20032;-83
2023/12/01 13:52:39;;;;;;;17.33;7.28;;;;;;;;;;5058872;28;20029;-83
2023/12/01 13:55:06;;;;;;;21.42;7.43;;;;;;;;;;5072240;28;20448;-83
2023/12/01 13:57:35;;;;;;;18.20;6.88;;;;;;;;;;5059800;28;20025;-83
2023/12/01 14:00:02;;;;;;;15.02;6.15;;;;;;;;;;5059193;28;20048;-83
2023/12/01 14:02:27;;;;;;;17.23;6.45;;;;;;;;;;5054263;28;20031;-83
2023/12/01 14:04:53;;;;;;;15.93;7.38;;;;;;;;;;5060001;28;20037;-83
2023/12/01 14:07:19;;;;;;;14.88;6.13;;;;;;;;;;5045056;28;20461;-83
2023/12/01 14:09:45;;;;;;;15.25;6.38;;;;;;;;;;5057927;28;20032;-83
2023/12/01 14:12:11;;;;;;;18.75;7.35;;;;;;;;;;5055454;28;20379;-83
2023/12/01 14:14:37;;;;;;;17.15;7.68;;;;;;;;;;5058067;28;20517;-83
2023/12/01 14:17:02;;;;;;;21.15;8.30;;;;;;;;;;5058390;28;20027;-83
2023/12/01 14:19:28;;;;;;;17.58;8.05;;;;;;;;;;5064761;28;20021;-83
2023/12/01 14:21:53;;;;;;;16.27;7.57;;;;;;;;;;5061697;28;20376;-83
2023/12/01 14:24:18;;;;;;;20.00;7.43;;;;;;;;;;5059935;28;20036;-82